sensor_id;sensor_type;location;lat;lon;timestamp;temperature;humidity
72940;DHT22;61094;51.154;13.570;2023-04-24T00:05:02;11.50;99.90
72940;DHT22;61094;51.154;13.570;2023-04-24T00:10:05;11.50;99.90
72940;DHT22;61094;51.154;13.570;2023-04-24T00:15:08;11.40;99.90
72940;DHT22;61094;51.154;13.570;2023-04-24T00:20:11;11.30;99.90
72940;DHT22;61094;51.154;13.570;2023-04-24T00:25:15;11.20;99.90
72940;DHT22;61094;51.154;13.570;2023-04-24T00:30:17;11.20;99.90
72940;DHT22;61094;51.154;13.570;2023-04-24T00:35:20;11.20;99.90
72940;DHT22;61094;51.154;13.570;2023-04-24T00:40:22;11.20;99.90
72940;DHT22;61094;51.154;13.570;2023-04-24T00:45:24;11.20;99.90
72940;DHT22;61094;51.154;13.570;2023-04-24T00:50:27;11.20;99.90
72940;DHT22;61094;51.154;13.570;2023-04-24T00:55:30;11.20;99.90
72940;DHT22;61094;51.154;13.570;2023-04-24T01:00:32;11.20;99.90
72940;DHT22;61094;51.154;13.570;2023-04-24T01:05:35;11.20;99.90
72940;DHT22;61094;51.154;13.570;2023-04-24T01:10:38;11.20;99.90
72940;DHT22;61094;51.154;13.570;2023-04-24T01:15:42;11.20;99.90
72940;DHT22;61094;51.154;13.570;2023-04-24T01:20:45;11.20;99.90
72940;DHT22;61094;51.154;13.570;2023-04-24T01:25:49;11.20;99.90
72940;DHT22;61094;51.154;13.570;2023-04-24T01:30:51;11.30;99.90
72940;DHT22;61094;51.154;13.570;2023-04-24T01:41:00;11.40;99.90
72940;DHT22;61094;51.154;13.570;2023-04-24T01:46:02;11.40;99.90
72940;DHT22;61094;51.154;13.570;2023-04-24T01:51:04;11.50;99.90
72940;DHT22;61094;51.154;13.570;2023-04-24T01:56:07;11.50;99.90
72940;DHT22;61094;51.154;13.570;2023-04-24T02:01:15;11.50;99.90
72940;DHT22;61094;51.154;13.570;2023-04-24T02:06:16;11.50;99.90
72940;DHT22;61094;51.154;13.570;2023-04-24T02:11:19;11.50;99.90
72940;DHT22;61094;51.154;13.570;2023-04-24T02:16:21;11.50;99.90
72940;DHT22;61094;51.154;13.570;2023-04-24T02:21:24;11.50;99.90
72940;DHT22;61094;51.154;13.570;2023-04-24T02:26:29;11.50;99.90
72940;DHT22;61094;51.154;13.570;2023-04-24T02:31:32;11.60;99.90
72940;DHT22;61094;51.154;13.570;2023-04-24T02:36:34;11.60;99.90
72940;DHT22;61094;51.154;13.570;2023-04-24T02:41:37;11.60;99.90
72940;DHT22;61094;51.154;13.570;2023-04-24T02:46:38;11.60;99.90
72940;DHT22;61094;51.154;13.570;2023-04-24T02:51:41;11.60;99.90
72940;DHT22;61094;51.154;13.570;2023-04-24T02:56:44;11.70;99.90
72940;DHT22;61094;51.154;13.570;2023-04-24T03:01:46;11.70;99.90
72940;DHT22;61094;51.154;13.570;2023-04-24T03:06:48;11.70;99.90
72940;DHT22;61094;51.154;13.570;2023-04-24T03:11:55;11.70;99.90
72940;DHT22;61094;51.154;13.570;2023-04-24T03:16:59;11.70;99.90
72940;DHT22;61094;51.154;13.570;2023-04-24T03:22:02;11.60;99.90
72940;DHT22;61094;51.154;13.570;2023-04-24T03:27:06;11.70;99.90
72940;DHT22;61094;51.154;13.570;2023-04-24T03:32:37;11.70;99.90
72940;DHT22;61094;51.154;13.570;2023-04-24T03:37:42;11.70;99.90
72940;DHT22;61094;51.154;13.570;2023-04-24T03:43:14;11.70;99.90
72940;DHT22;61094;51.154;13.570;2023-04-24T03:48:16;11.70;99.90
72940;DHT22;61094;51.154;13.570;2023-04-24T03:53:18;11.70;99.90
72940;DHT22;61094;51.154;13.570;2023-04-24T03:58:22;11.70;99.90
72940;DHT22;61094;51.154;13.570;2023-04-24T04:03:24;11.70;99.90
72940;DHT22;61094;51.154;13.570;2023-04-24T04:08:29;11.70;99.90
72940;DHT22;61094;51.154;13.570;2023-04-24T04:13:33;11.70;99.90
72940;DHT22;61094;51.154;13.570;2023-04-24T04:18:35;11.60;99.90
72940;DHT22;61094;51.154;13.570;2023-04-24T04:23:39;11.60;99.90
72940;DHT22;61094;51.154;13.570;2023-04-24T04:28:49;11.60;99.90
72940;DHT22;61094;51.154;13.570;2023-04-24T04:33:51;11.60;99.90
72940;DHT22;61094;51.154;13.570;2023-04-24T04:38:54;11.60;99.90
72940;DHT22;61094;51.154;13.570;2023-04-24T04:44:17;11.60;99.90
72940;DHT22;61094;51.154;13.570;2023-04-24T04:49:19;11.70;99.90
72940;DHT22;61094;51.154;13.570;2023-04-24T04:54:22;11.70;99.90
72940;DHT22;61094;51.154;13.570;2023-04-24T04:59:27;11.70;99.90
72940;DHT22;61094;51.154;13.570;2023-04-24T05:04:37;11.80;99.90
72940;DHT22;61094;51.154;13.570;2023-04-24T05:09:39;11.90;99.90
72940;DHT22;61094;51.154;13.570;2023-04-24T05:14:42;12.00;99.90
72940;DHT22;61094;51.154;13.570;2023-04-24T05:19:45;12.10;99.90
72940;DHT22;61094;51.154;13.570;2023-04-24T05:24:49;12.10;99.90
72940;DHT22;61094;51.154;13.570;2023-04-24T05:30:12;12.10;99.90
72940;DHT22;61094;51.154;13.570;2023-04-24T05:35:14;12.20;99.90
72940;DHT22;61094;51.154;13.570;2023-04-24T05:40:16;12.30;99.90
72940;DHT22;61094;51.154;13.570;2023-04-24T05:45:20;12.30;99.90
72940;DHT22;61094;51.154;13.570;2023-04-24T05:50:21;12.40;99.90
72940;DHT22;61094;51.154;13.570;2023-04-24T05:55:23;12.40;99.90
72940;DHT22;61094;51.154;13.570;2023-04-24T06:00:27;12.50;99.90
72940;DHT22;61094;51.154;13.570;2023-04-24T06:05:37;12.60;99.90
72940;DHT22;61094;51.154;13.570;2023-04-24T06:10:39;12.70;99.90
72940;DHT22;61094;51.154;13.570;2023-04-24T06:15:44;12.70;99.90
72940;DHT22;61094;51.154;13.570;2023-04-24T06:21:06;12.80;99.90
72940;DHT22;61094;51.154;13.570;2023-04-24T06:26:08;12.80;99.90
72940;DHT22;61094;51.154;13.570;2023-04-24T06:31:11;12.90;99.90
72940;DHT22;61094;51.154;13.570;2023-04-24T06:36:13;13.00;99.90
72940;DHT22;61094;51.154;13.570;2023-04-24T06:41:15;13.10;99.90
72940;DHT22;61094;51.154;13.570;2023-04-24T06:46:18;13.20;99.90
72940;DHT22;61094;51.154;13.570;2023-04-24T06:51:23;13.40;99.90
72940;DHT22;61094;51.154;13.570;2023-04-24T06:56:25;13.50;99.80
72940;DHT22;61094;51.154;13.570;2023-04-24T07:01:28;13.70;99.20
72940;DHT22;61094;51.154;13.570;2023-04-24T07:06:30;13.80;98.60
72940;DHT22;61094;51.154;13.570;2023-04-24T07:11:33;13.90;99.50
72940;DHT22;61094;51.154;13.570;2023-04-24T07:16:38;13.90;97.80
72940;DHT22;61094;51.154;13.570;2023-04-24T07:21:40;13.90;97.60
72940;DHT22;61094;51.154;13.570;2023-04-24T07:26:48;13.90;99.90
72940;DHT22;61094;51.154;13.570;2023-04-24T07:31:59;14.00;95.70
72940;DHT22;61094;51.154;13.570;2023-04-24T07:37:01;14.00;97.10
72940;DHT22;61094;51.154;13.570;2023-04-24T07:42:03;14.20;96.10
72940;DHT22;61094;51.154;13.570;2023-04-24T07:47:06;14.30;96.90
72940;DHT22;61094;51.154;13.570;2023-04-24T07:52:08;14.70;94.60
72940;DHT22;61094;51.154;13.570;2023-04-24T07:57:10;14.90;94.30
72940;DHT22;61094;51.154;13.570;2023-04-24T08:02:13;15.00;93.80
72940;DHT22;61094;51.154;13.570;2023-04-24T08:07:15;15.10;94.40
72940;DHT22;61094;51.154;13.570;2023-04-24T08:12:17;15.10;93.90
72940;DHT22;61094;51.154;13.570;2023-04-24T08:17:20;15.00;92.20
72940;DHT22;61094;51.154;13.570;2023-04-24T08:22:22;14.90;93.80
72940;DHT22;61094;51.154;13.570;2023-04-24T08:27:24;14.90;90.80
72940;DHT22;61094;51.154;13.570;2023-04-24T08:32:27;15.00;92.20
72940;DHT22;61094;51.154;13.570;2023-04-24T08:37:29;15.20;92.00
72940;DHT22;61094;51.154;13.570;2023-04-24T08:42:32;15.40;93.60
72940;DHT22;61094;51.154;13.570;2023-04-24T08:47:37;15.20;90.80
72940;DHT22;61094;51.154;13.570;2023-04-24T08:52:39;15.10;90.70
72940;DHT22;61094;51.154;13.570;2023-04-24T08:57:43;15.10;89.70
72940;DHT22;61094;51.154;13.570;2023-04-24T09:02:47;15.10;92.70
72940;DHT22;61094;51.154;13.570;2023-04-24T09:07:53;15.10;90.30
72940;DHT22;61094;51.154;13.570;2023-04-24T09:12:56;15.30;86.70
72940;DHT22;61094;51.154;13.570;2023-04-24T09:18:00;15.20;85.00
72940;DHT22;61094;51.154;13.570;2023-04-24T09:23:02;15.20;79.60
72940;DHT22;61094;51.154;13.570;2023-04-24T09:28:04;15.20;81.80
72940;DHT22;61094;51.154;13.570;2023-04-24T09:33:13;15.30;83.20
72940;DHT22;61094;51.154;13.570;2023-04-24T09:38:15;15.30;71.60
72940;DHT22;61094;51.154;13.570;2023-04-24T09:43:17;15.40;75.70
72940;DHT22;61094;51.154;13.570;2023-04-24T09:48:29;15.60;67.50
72940;DHT22;61094;51.154;13.570;2023-04-24T09:53:31;15.50;73.30
72940;DHT22;61094;51.154;13.570;2023-04-24T09:58:35;15.50;80.20
72940;DHT22;61094;51.154;13.570;2023-04-24T10:03:38;15.60;72.20
72940;DHT22;61094;51.154;13.570;2023-04-24T10:08:43;15.70;73.30
72940;DHT22;61094;51.154;13.570;2023-04-24T10:13:46;15.80;76.10
72940;DHT22;61094;51.154;13.570;2023-04-24T10:18:49;16.00;62.30
72940;DHT22;61094;51.154;13.570;2023-04-24T10:23:51;16.30;63.40
72940;DHT22;61094;51.154;13.570;2023-04-24T10:28:54;16.40;61.10
72940;DHT22;61094;51.154;13.570;2023-04-24T10:34:01;16.60;64.10
72940;DHT22;61094;51.154;13.570;2023-04-24T10:39:07;16.80;56.30
72940;DHT22;61094;51.154;13.570;2023-04-24T10:44:12;17.00;65.20
72940;DHT22;61094;51.154;13.570;2023-04-24T10:49:15;17.20;69.70
72940;DHT22;61094;51.154;13.570;2023-04-24T10:54:24;17.30;66.90
72940;DHT22;61094;51.154;13.570;2023-04-24T10:59:27;17.20;54.20
72940;DHT22;61094;51.154;13.570;2023-04-24T11:04:31;17.20;57.10
72940;DHT22;61094;51.154;13.570;2023-04-24T11:09:36;16.90;57.90
72940;DHT22;61094;51.154;13.570;2023-04-24T11:15:00;16.60;63.80
72940;DHT22;61094;51.154;13.570;2023-04-24T11:20:06;16.10;65.40
72940;DHT22;61094;51.154;13.570;2023-04-24T11:25:10;15.80;66.30
72940;DHT22;61094;51.154;13.570;2023-04-24T11:30:17;15.90;65.40
72940;DHT22;61094;51.154;13.570;2023-04-24T11:35:22;16.40;65.20
72940;DHT22;61094;51.154;13.570;2023-04-24T11:40:27;16.80;58.40
72940;DHT22;61094;51.154;13.570;2023-04-24T11:45:30;16.70;61.20
72940;DHT22;61094;51.154;13.570;2023-04-24T11:50:35;16.30;62.20
72940;DHT22;61094;51.154;13.570;2023-04-24T11:55:36;15.90;62.40
72940;DHT22;61094;51.154;13.570;2023-04-24T12:00:39;15.70;68.90
72940;DHT22;61094;51.154;13.570;2023-04-24T12:05:43;15.80;56.30
72940;DHT22;61094;51.154;13.570;2023-04-24T12:10:51;15.90;48.20
72940;DHT22;61094;51.154;13.570;2023-04-24T12:15:52;16.20;48.60
72940;DHT22;61094;51.154;13.570;2023-04-24T12:21:15;16.70;44.20
72940;DHT22;61094;51.154;13.570;2023-04-24T12:26:17;16.80;43.40
72940;DHT22;61094;51.154;13.570;2023-04-24T12:31:21;16.60;45.10
72940;DHT22;61094;51.154;13.570;2023-04-24T12:36:25;16.50;45.30
72940;DHT22;61094;51.154;13.570;2023-04-24T12:41:30;16.60;44.20
72940;DHT22;61094;51.154;13.570;2023-04-24T12:46:32;16.40;44.10
72940;DHT22;61094;51.154;13.570;2023-04-24T12:51:35;16.70;44.20
72940;DHT22;61094;51.154;13.570;2023-04-24T12:56:38;17.10;42.90
72940;DHT22;61094;51.154;13.570;2023-04-24T13:01:41;17.10;42.00
72940;DHT22;61094;51.154;13.570;2023-04-24T13:06:44;17.30;41.00
72940;DHT22;61094;51.154;13.570;2023-04-24T13:11:45;17.50;41.50
72940;DHT22;61094;51.154;13.570;2023-04-24T13:16:47;17.60;40.20
72940;DHT22;61094;51.154;13.570;2023-04-24T13:21:55;17.40;40.10
72940;DHT22;61094;51.154;13.570;2023-04-24T13:26:57;17.00;40.20
72940;DHT22;61094;51.154;13.570;2023-04-24T13:31:59;17.10;40.90
72940;DHT22;61094;51.154;13.570;2023-04-24T13:37:03;17.30;39.80
72940;DHT22;61094;51.154;13.570;2023-04-24T13:42:05;17.70;40.90
72940;DHT22;61094;51.154;13.570;2023-04-24T13:47:07;18.00;39.70
72940;DHT22;61094;51.154;13.570;2023-04-24T13:52:10;17.70;35.60
72940;DHT22;61094;51.154;13.570;2023-04-24T13:57:13;17.50;36.30
72940;DHT22;61094;51.154;13.570;2023-04-24T14:02:15;17.60;36.70
72940;DHT22;61094;51.154;13.570;2023-04-24T14:07:18;17.70;36.40
72940;DHT22;61094;51.154;13.570;2023-04-24T14:12:20;17.70;35.90
72940;DHT22;61094;51.154;13.570;2023-04-24T14:17:22;17.90;36.70
72940;DHT22;61094;51.154;13.570;2023-04-24T14:22:25;18.00;36.40
72940;DHT22;61094;51.154;13.570;2023-04-24T14:27:27;17.70;36.70
72940;DHT22;61094;51.154;13.570;2023-04-24T14:32:29;17.40;37.80
72940;DHT22;61094;51.154;13.570;2023-04-24T14:37:32;17.70;38.60
72940;DHT22;61094;51.154;13.570;2023-04-24T14:42:34;17.70;36.50
72940;DHT22;61094;51.154;13.570;2023-04-24T14:47:36;17.50;37.10
72940;DHT22;61094;51.154;13.570;2023-04-24T14:52:39;17.70;37.10
72940;DHT22;61094;51.154;13.570;2023-04-24T14:57:42;17.70;38.00
72940;DHT22;61094;51.154;13.570;2023-04-24T15:08:19;17.70;37.50
72940;DHT22;61094;51.154;13.570;2023-04-24T15:13:21;17.50;37.60
72940;DHT22;61094;51.154;13.570;2023-04-24T15:18:23;16.90;36.10
72940;DHT22;61094;51.154;13.570;2023-04-24T15:23:26;16.60;37.70
72940;DHT22;61094;51.154;13.570;2023-04-24T15:28:27;16.30;38.40
72940;DHT22;61094;51.154;13.570;2023-04-24T15:33:29;16.30;38.70
72940;DHT22;61094;51.154;13.570;2023-04-24T15:38:32;16.30;38.40
72940;DHT22;61094;51.154;13.570;2023-04-24T15:43:36;16.20;39.70
72940;DHT22;61094;51.154;13.570;2023-04-24T15:48:39;16.10;39.80
72940;DHT22;61094;51.154;13.570;2023-04-24T15:53:43;15.90;40.00
72940;DHT22;61094;51.154;13.570;2023-04-24T15:58:46;15.80;40.90
72940;DHT22;61094;51.154;13.570;2023-04-24T16:03:48;15.70;41.00
72940;DHT22;61094;51.154;13.570;2023-04-24T16:08:51;15.70;42.30
72940;DHT22;61094;51.154;13.570;2023-04-24T16:13:52;15.70;41.60
72940;DHT22;61094;51.154;13.570;2023-04-24T16:18:54;15.70;41.60
72940;DHT22;61094;51.154;13.570;2023-04-24T16:23:57;15.70;41.60
72940;DHT22;61094;51.154;13.570;2023-04-24T16:28:59;15.50;41.40
72940;DHT22;61094;51.154;13.570;2023-04-24T16:34:01;15.30;42.10
72940;DHT22;61094;51.154;13.570;2023-04-24T16:39:04;15.20;43.10
72940;DHT22;61094;51.154;13.570;2023-04-24T16:44:28;15.10;43.40
72940;DHT22;61094;51.154;13.570;2023-04-24T16:50:00;14.90;43.30
72940;DHT22;61094;51.154;13.570;2023-04-24T16:55:04;14.80;44.00
72940;DHT22;61094;51.154;13.570;2023-04-24T17:00:07;14.70;44.60
72940;DHT22;61094;51.154;13.570;2023-04-24T17:05:09;14.40;45.00
72940;DHT22;61094;51.154;13.570;2023-04-24T17:10:12;14.30;45.70
72940;DHT22;61094;51.154;13.570;2023-04-24T17:15:14;14.20;46.70
72940;DHT22;61094;51.154;13.570;2023-04-24T17:20:16;14.10;47.50
72940;DHT22;61094;51.154;13.570;2023-04-24T17:25:19;14.20;49.80
72940;DHT22;61094;51.154;13.570;2023-04-24T17:30:21;14.10;50.30
72940;DHT22;61094;51.154;13.570;2023-04-24T17:35:23;14.00;48.70
72940;DHT22;61094;51.154;13.570;2023-04-24T17:40:26;13.80;51.40
72940;DHT22;61094;51.154;13.570;2023-04-24T17:45:28;13.70;49.30
72940;DHT22;61094;51.154;13.570;2023-04-24T17:50:30;13.50;50.50
72940;DHT22;61094;51.154;13.570;2023-04-24T17:55:33;13.20;50.00
72940;DHT22;61094;51.154;13.570;2023-04-24T18:01:09;13.00;52.50
72940;DHT22;61094;51.154;13.570;2023-04-24T18:06:55;12.80;55.50
72940;DHT22;61094;51.154;13.570;2023-04-24T18:12:06;12.60;56.70
72940;DHT22;61094;51.154;13.570;2023-04-24T18:17:23;12.40;57.80
72940;DHT22;61094;51.154;13.570;2023-04-24T18:22:26;12.20;55.70
72940;DHT22;61094;51.154;13.570;2023-04-24T18:28:09;12.00;57.40
72940;DHT22;61094;51.154;13.570;2023-04-24T18:33:14;11.90;57.30
72940;DHT22;61094;51.154;13.570;2023-04-24T18:38:49;11.80;59.70
72940;DHT22;61094;51.154;13.570;2023-04-24T18:44:21;11.60;60.10
72940;DHT22;61094;51.154;13.570;2023-04-24T18:49:31;11.60;63.30
72940;DHT22;61094;51.154;13.570;2023-04-24T18:54:39;11.50;65.10
72940;DHT22;61094;51.154;13.570;2023-04-24T18:59:42;11.50;67.10
72940;DHT22;61094;51.154;13.570;2023-04-24T19:04:48;11.40;69.30
72940;DHT22;61094;51.154;13.570;2023-04-24T19:09:50;11.30;70.70
72940;DHT22;61094;51.154;13.570;2023-04-24T19:14:53;11.30;74.60
72940;DHT22;61094;51.154;13.570;2023-04-24T19:19:55;11.20;75.30
72940;DHT22;61094;51.154;13.570;2023-04-24T19:24:57;11.10;76.80
72940;DHT22;61094;51.154;13.570;2023-04-24T19:30:00;11.00;76.50
72940;DHT22;61094;51.154;13.570;2023-04-24T19:35:01;10.90;80.60
72940;DHT22;61094;51.154;13.570;2023-04-24T19:40:04;10.80;81.10
72940;DHT22;61094;51.154;13.570;2023-04-24T19:45:08;10.70;84.60
72940;DHT22;61094;51.154;13.570;2023-04-24T19:50:10;10.70;81.70
72940;DHT22;61094;51.154;13.570;2023-04-24T19:55:12;10.60;86.70
72940;DHT22;61094;51.154;13.570;2023-04-24T20:00:15;10.60;88.40
72940;DHT22;61094;51.154;13.570;2023-04-24T20:05:17;10.60;89.40
72940;DHT22;61094;51.154;13.570;2023-04-24T20:10:19;10.50;90.00
72940;DHT22;61094;51.154;13.570;2023-04-24T20:15:22;10.50;90.80
72940;DHT22;61094;51.154;13.570;2023-04-24T20:20:23;10.50;90.80
72940;DHT22;61094;51.154;13.570;2023-04-24T20:25:25;10.40;90.80
72940;DHT22;61094;51.154;13.570;2023-04-24T20:30:29;10.30;90.80
72940;DHT22;61094;51.154;13.570;2023-04-24T20:35:30;10.30;91.00
72940;DHT22;61094;51.154;13.570;2023-04-24T20:40:32;10.20;90.70
72940;DHT22;61094;51.154;13.570;2023-04-24T20:45:37;10.10;90.80
72940;DHT22;61094;51.154;13.570;2023-04-24T20:50:39;10.10;91.30
72940;DHT22;61094;51.154;13.570;2023-04-24T20:55:40;10.00;91.40
72940;DHT22;61094;51.154;13.570;2023-04-24T21:00:43;10.00;92.10
72940;DHT22;61094;51.154;13.570;2023-04-24T21:05:46;10.00;92.50
72940;DHT22;61094;51.154;13.570;2023-04-24T21:10:48;10.00;92.80
72940;DHT22;61094;51.154;13.570;2023-04-24T21:15:52;10.00;93.10
72940;DHT22;61094;51.154;13.570;2023-04-24T21:20:54;9.90;92.40
72940;DHT22;61094;51.154;13.570;2023-04-24T21:25:59;9.80;92.70
72940;DHT22;61094;51.154;13.570;2023-04-24T21:31:02;9.70;92.70
72940;DHT22;61094;51.154;13.570;2023-04-24T21:36:04;9.60;92.40
72940;DHT22;61094;51.154;13.570;2023-04-24T21:41:06;9.60;93.20
72940;DHT22;61094;51.154;13.570;2023-04-24T21:46:09;9.50;92.70
72940;DHT22;61094;51.154;13.570;2023-04-24T21:51:10;9.50;92.90
72940;DHT22;61094;51.154;13.570;2023-04-24T21:56:12;9.50;93.30
72940;DHT22;61094;51.154;13.570;2023-04-24T22:01:16;9.50;93.40
72940;DHT22;61094;51.154;13.570;2023-04-24T22:06:18;9.50;93.20
72940;DHT22;61094;51.154;13.570;2023-04-24T22:11:20;9.40;93.40
72940;DHT22;61094;51.154;13.570;2023-04-24T22:16:23;9.40;93.30
72940;DHT22;61094;51.154;13.570;2023-04-24T22:21:25;9.30;93.80
72940;DHT22;61094;51.154;13.570;2023-04-24T22:26:27;9.30;94.30
72940;DHT22;61094;51.154;13.570;2023-04-24T22:31:30;9.20;94.90
72940;DHT22;61094;51.154;13.570;2023-04-24T22:36:32;9.10;95.20
72940;DHT22;61094;51.154;13.570;2023-04-24T22:41:34;9.00;95.60
72940;DHT22;61094;51.154;13.570;2023-04-24T22:46:37;8.90;96.40
72940;DHT22;61094;51.154;13.570;2023-04-24T22:51:38;8.90;96.60
72940;DHT22;61094;51.154;13.570;2023-04-24T22:56:41;8.80;96.90
72940;DHT22;61094;51.154;13.570;2023-04-24T23:01:44;8.70;97.20
72940;DHT22;61094;51.154;13.570;2023-04-24T23:06:45;8.60;97.90
72940;DHT22;61094;51.154;13.570;2023-04-24T23:11:47;8.40;98.00
72940;DHT22;61094;51.154;13.570;2023-04-24T23:16:50;8.10;98.90
72940;DHT22;61094;51.154;13.570;2023-04-24T23:21:52;7.90;99.60
72940;DHT22;61094;51.154;13.570;2023-04-24T23:26:53;7.70;99.90
72940;DHT22;61094;51.154;13.570;2023-04-24T23:31:56;7.70;99.90
72940;DHT22;61094;51.154;13.570;2023-04-24T23:36:59;7.70;99.90
72940;DHT22;61094;51.154;13.570;2023-04-24T23:42:01;7.70;99.90
72940;DHT22;61094;51.154;13.570;2023-04-24T23:47:04;7.70;99.90
72940;DHT22;61094;51.154;13.570;2023-04-24T23:52:06;7.70;99.90
72940;DHT22;61094;51.154;13.570;2023-04-24T23:57:08;7.70;99.90
